首页
METAR-TAF:

METAR-TAF

机场 :

鳳凰城天港國際機場

鳳凰城, 亞利桑那州, 美国

纬度: 33-26-03N, 经度: 112-03-04W, 海拔: 345米

当前天气观测

该预报发布于39分钟前的13:51 UTC
风速8节,风向
温度 26°C
湿度 20%
气压 1009 hPa
能見度: 16.1公里
少量云层高于25000英尺

METAR: KPHX 251351Z 09008KT 10SM FEW250 26/01 A2980 RMK AO2 SLP070 FU LYR DSNT E T02610011

时间: 07:30 (14:30 UTC)

预报

该预报发布于3小时和10分钟前的11:20 UTC
预报有效从25日的 12点(UTC)到 26日的 18点(UTC)
风速6节,风向东转东南
能見度: 10公里
天空无云
从 25日的 1900点(UTC)
风速6节,风向
能見度: 10公里
少量云层高于25000英尺
从 25日的 2300点(UTC)
风速11节,风向西,有时为18节阵风
能見度: 10公里
散云层高于25000英尺
从 26日的 0400点(UTC)
风速8节,风向西
能見度: 10公里
少量云层高于25000英尺
从 26日的 1000点(UTC)
风速6节,风向东转东南
能見度: 10公里
少量云层高于25000英尺

TAF: KPHX 251120Z 2512/2618 11006KT P6SM SKC FM251900 19006KT P6SM FEW250 FM252300 27011G18KT P6SM SCT250 FM260400 26008KT P6SM FEW250 FM261000 11006KT P6SM FEW250

超过4000个机场的气象观测和天气预报(METAR&TAF报告)。

可查询的气象台以黄色和红色小点在地图上表示。

将鼠标移到小点上方,可查看气象台名称。

然后点击查看天气观测和预报。

如需切换地图:点击带黑十字的绿色按钮放大地图;点击带横线的绿色按钮缩小地图;或者点击绿色箭头查看邻近地区的地图。


METAR-TAF: